Time;durP1;ratioP1;P1;durP2;ratioP2;P2;SDS_P1;SDS_P2;PMS_P1;PMS_P2;Temp;Humidity;BMP_temperature;BMP_pressure;BME280_temperature;BME280_humidity;BME280_pressure;Samples;Min_cycle;Max_cycle;Signal;HPM_P1;HPM_P2
2023/12/30 00:01:48;;;;;;;12.27;11.47;;;6.00;99.90;;;;;;4900341;29;20205;-76
2023/12/30 00:04:15;;;;;;;11.83;11.13;;;6.00;99.90;;;;;;4892109;29;20203;-77
2023/12/30 00:06:43;;;;;;;11.83;11.03;;;6.10;99.90;;;;;;4900553;29;20226;-77
2023/12/30 00:09:10;;;;;;;12.00;11.20;;;6.00;99.90;;;;;;4900063;29;20279;-77
2023/12/30 00:11:37;;;;;;;12.50;11.70;;;6.00;99.90;;;;;;4900353;29;20686;-77
2023/12/30 00:14:05;;;;;;;11.97;11.23;;;6.00;99.90;;;;;;4900152;29;20239;-76
2023/12/30 00:16:32;;;;;;;12.00;11.30;;;6.00;99.90;;;;;;4900295;29;20233;-77
2023/12/30 00:18:59;;;;;;;12.27;11.47;;;6.10;99.90;;;;;;4900028;29;20203;-76
2023/12/30 00:21:26;;;;;;;11.90;11.10;;;6.10;99.90;;;;;;4900185;29;20260;-77
2023/12/30 00:23:52;;;;;;;11.80;11.10;;;6.10;99.90;;;;;;4898925;29;20238;-76
2023/12/30 00:26:20;;;;;;;11.53;10.83;;;6.20;99.90;;;;;;4899231;29;20249;-76
2023/12/30 00:28:49;;;;;;;12.30;11.53;;;6.20;99.90;;;;;;4898811;29;20218;-76
2023/12/30 00:31:24;;;;;;;11.73;11.00;;;6.30;99.90;;;;;;4898798;29;20210;-76
2023/12/30 00:33:52;;;;;;;11.80;10.93;;;6.30;99.90;;;;;;4899059;29;20207;-76
2023/12/30 00:36:19;;;;;;;12.10;11.30;;;6.40;99.90;;;;;;4899153;29;20746;-77
2023/12/30 00:38:46;;;;;;;12.07;11.27;;;6.40;99.90;;;;;;4899825;29;20208;-76
2023/12/30 00:41:13;;;;;;;11.60;10.90;;;6.40;99.90;;;;;;4900002;29;20196;-77
2023/12/30 00:43:41;;;;;;;11.60;10.90;;;6.40;99.90;;;;;;4900410;29;20309;-77
2023/12/30 00:46:08;;;;;;;11.63;10.83;;;6.40;99.90;;;;;;4901161;29;20222;-77
2023/12/30 00:48:36;;;;;;;11.77;11.07;;;6.40;99.90;;;;;;4898705;29;20655;-76
2023/12/30 00:51:04;;;;;;;12.03;11.30;;;6.50;99.90;;;;;;4898861;29;20237;-77
2023/12/30 00:53:31;;;;;;;11.70;11.00;;;6.50;99.90;;;;;;4898488;29;20257;-77
2023/12/30 00:55:58;;;;;;;11.60;10.90;;;6.50;99.90;;;;;;4898785;29;20211;-76
2023/12/30 00:58:25;;;;;;;11.40;10.70;;;6.50;99.90;;;;;;4900069;29;20231;-76
2023/12/30 01:00:52;;;;;;;11.40;10.77;;;6.50;99.90;;;;;;4894924;29;20293;-76
2023/12/30 01:03:19;;;;;;;11.60;10.90;;;6.50;99.90;;;;;;4899774;29;20214;-77
2023/12/30 01:05:48;;;;;;;11.80;11.10;;;6.50;99.90;;;;;;4898345;29;20269;-77
2023/12/30 01:08:15;;;;;;;11.50;10.80;;;6.50;99.90;;;;;;4899365;29;20234;-77
2023/12/30 01:10:42;;;;;;;11.60;10.90;;;6.50;99.90;;;;;;4897866;29;20220;-76
2023/12/30 01:13:09;;;;;;;11.20;10.60;;;6.50;99.90;;;;;;4897998;29;20651;-77
2023/12/30 01:15:36;;;;;;;11.30;10.60;;;6.60;99.90;;;;;;4898480;29;20212;-76
2023/12/30 01:18:03;;;;;;;11.50;10.90;;;6.60;99.90;;;;;;4897801;29;20291;-76
2023/12/30 01:20:30;;;;;;;11.40;10.70;;;6.60;99.90;;;;;;4898342;29;20207;-76
2023/12/30 01:22:58;;;;;;;11.70;11.00;;;6.60;99.90;;;;;;4897953;29;20261;-76
2023/12/30 01:25:25;;;;;;;11.27;10.67;;;6.70;99.90;;;;;;4897468;29;20217;-77
2023/12/30 01:27:52;;;;;;;10.80;10.20;;;6.70;99.90;;;;;;4898018;29;20668;-76
2023/12/30 01:30:19;;;;;;;10.93;10.33;;;6.80;99.90;;;;;;4906101;29;20242;-77
2023/12/30 01:32:46;;;;;;;11.23;10.63;;;6.90;99.90;;;;;;4898075;29;20256;-77
2023/12/30 01:35:14;;;;;;;11.20;10.60;;;6.90;99.90;;;;;;4899123;29;20227;-76
2023/12/30 01:37:41;;;;;;;11.30;10.60;;;7.00;99.90;;;;;;4899501;29;20268;-76
2023/12/30 01:40:10;;;;;;;10.93;10.33;;;7.00;99.90;;;;;;4897420;29;20291;-77
2023/12/30 01:42:41;;;;;;;11.30;10.60;;;7.00;99.90;;;;;;4897740;29;20211;-77
2023/12/30 01:45:08;;;;;;;11.00;10.40;;;7.00;99.90;;;;;;4895759;29;20233;-77
2023/12/30 01:47:36;;;;;;;10.73;10.13;;;7.00;99.90;;;;;;4897865;29;20659;-77
2023/12/30 01:50:05;;;;;;;11.00;10.40;;;7.00;99.90;;;;;;4897462;29;20227;-76
2023/12/30 01:52:32;;;;;;;11.10;10.50;;;7.00;99.90;;;;;;4902346;29;20199;-77
2023/12/30 01:55:00;;;;;;;11.23;10.63;;;7.10;99.90;;;;;;4900464;29;20341;-77
2023/12/30 01:57:28;;;;;;;11.60;10.70;;;7.10;99.90;;;;;;4890822;29;20754;-77
2023/12/30 01:59:55;;;;;;;11.17;10.47;;;7.20;99.90;;;;;;4897635;29;20215;-77
2023/12/30 02:02:22;;;;;;;11.53;10.83;;;7.20;99.90;;;;;;4896020;29;20203;-77
2023/12/30 02:04:49;;;;;;;11.63;10.93;;;7.30;99.90;;;;;;4897654;29;20284;-77
2023/12/30 02:07:16;;;;;;;11.40;10.70;;;7.30;99.90;;;;;;4898519;29;20227;-77
2023/12/30 02:09:43;;;;;;;11.67;10.80;;;7.40;99.90;;;;;;4897319;29;20224;-77
2023/12/30 02:12:10;;;;;;;11.43;10.80;;;7.50;99.90;;;;;;4897199;29;20559;-76
2023/12/30 02:14:39;;;;;;;11.53;10.93;;;7.60;99.90;;;;;;4899537;29;20204;-77
2023/12/30 02:17:06;;;;;;;10.73;10.13;;;7.60;99.90;;;;;;4897897;29;20268;-77
2023/12/30 02:19:34;;;;;;;11.37;10.67;;;7.80;99.90;;;;;;4890713;29;20207;-76
2023/12/30 02:22:01;;;;;;;11.60;10.80;;;7.80;99.90;;;;;;4897398;29;20228;-76
2023/12/30 02:24:29;;;;;;;11.47;10.77;;;7.80;99.90;;;;;;4897193;29;20219;-76
2023/12/30 02:26:56;;;;;;;10.90;10.20;;;7.90;99.90;;;;;;4898777;29;20228;-77
2023/12/30 02:29:23;;;;;;;11.03;10.37;;;7.90;99.90;;;;;;4898540;29;20204;-77
2023/12/30 02:31:50;;;;;;;10.77;10.17;;;8.00;99.90;;;;;;4897480;29;20668;-77
2023/12/30 02:34:18;;;;;;;11.20;10.60;;;8.00;99.90;;;;;;4897513;29;20204;-77
2023/12/30 02:36:46;;;;;;;11.20;10.60;;;8.00;99.90;;;;;;4898003;29;20225;-77
2023/12/30 02:39:13;;;;;;;11.10;10.50;;;8.00;99.90;;;;;;4897401;29;20590;-77
2023/12/30 02:41:41;;;;;;;11.40;10.70;;;8.00;99.90;;;;;;4891715;29;20316;-77
2023/12/30 02:44:09;;;;;;;11.17;10.57;;;8.00;99.90;;;;;;4897602;29;20211;-77
2023/12/30 02:46:36;;;;;;;10.77;10.17;;;7.90;99.90;;;;;;4897596;29;20268;-77
2023/12/30 02:49:04;;;;;;;11.10;10.50;;;7.80;99.90;;;;;;4897750;29;20232;-77
2023/12/30 02:51:32;;;;;;;10.97;10.27;;;7.80;99.90;;;;;;4897035;29;20227;-77
2023/12/30 02:53:59;;;;;;;11.10;10.50;;;7.70;99.90;;;;;;4896876;29;20281;-77
2023/12/30 02:56:27;;;;;;;11.17;10.50;;;7.60;99.90;;;;;;4896933;29;20687;-76
2023/12/30 02:58:57;;;;;;;10.90;10.30;;;7.60;99.90;;;;;;4901916;29;20204;-77
2023/12/30 03:01:25;;;;;;;11.40;10.67;;;7.50;99.90;;;;;;4896761;29;20233;-76
2023/12/30 03:03:54;;;;;;;11.30;10.60;;;7.40;99.90;;;;;;4896185;29;20215;-77
2023/12/30 03:06:21;;;;;;;11.13;10.33;;;7.30;99.90;;;;;;4896965;29;20196;-77
2023/12/30 03:08:48;;;;;;;11.17;10.57;;;7.20;99.90;;;;;;4897883;29;20566;-77
2023/12/30 03:11:15;;;;;;;11.00;10.30;;;7.20;99.90;;;;;;4897771;29;20648;-77
2023/12/30 03:13:42;;;;;;;10.93;10.33;;;7.20;99.90;;;;;;4896840;29;20269;-77
2023/12/30 03:16:13;;;;;;;11.47;10.87;;;7.10;99.90;;;;;;4893864;29;20196;-77
2023/12/30 03:18:40;;;;;;;11.20;10.40;;;7.10;99.90;;;;;;4898004;29;20267;-77
2023/12/30 03:21:07;;;;;;;11.30;10.60;;;7.10;99.90;;;;;;4897521;29;20684;-76
2023/12/30 03:23:34;;;;;;;11.07;10.43;;;7.10;99.90;;;;;;4896750;29;20231;-77
2023/12/30 03:26:02;;;;;;;11.43;10.53;;;7.10;99.90;;;;;;4898188;29;20196;-77
2023/12/30 03:28:29;;;;;;;10.67;10.07;;;7.20;99.90;;;;;;4898303;29;20219;-76
2023/12/30 03:30:56;;;;;;;11.43;10.80;;;7.20;99.90;;;;;;4896580;29;20213;-77
2023/12/30 03:33:25;;;;;;;11.10;10.40;;;7.30;99.90;;;;;;4896902;29;20496;-76
2023/12/30 03:35:53;;;;;;;10.70;10.10;;;7.30;99.90;;;;;;4896043;29;20215;-77
2023/12/30 03:38:20;;;;;;;10.50;9.90;;;7.40;99.90;;;;;;4897992;29;20259;-77
2023/12/30 03:40:47;;;;;;;10.77;10.07;;;7.40;99.90;;;;;;4898227;29;20586;-77
2023/12/30 03:43:14;;;;;;;10.90;10.20;;;7.50;99.90;;;;;;4898848;29;20200;-77
2023/12/30 03:45:41;;;;;;;10.90;10.30;;;7.50;99.90;;;;;;4898476;29;20216;-77
2023/12/30 03:48:09;;;;;;;10.60;10.00;;;7.60;99.90;;;;;;4897611;29;20228;-76
2023/12/30 03:50:37;;;;;;;10.70;10.10;;;7.60;99.90;;;;;;4899759;29;20239;-77
2023/12/30 03:53:05;;;;;;;10.53;9.93;;;7.60;99.90;;;;;;4898079;29;20743;-77
2023/12/30 03:55:31;;;;;;;11.13;10.33;;;7.60;99.90;;;;;;4897747;29;20231;-77
2023/12/30 03:57:58;;;;;;;11.17;10.50;;;7.70;99.90;;;;;;4896968;29;20590;-77
2023/12/30 04:00:25;;;;;;;11.50;10.80;;;7.70;99.90;;;;;;4898136;29;20201;-76
2023/12/30 04:02:52;;;;;;;11.00;10.40;;;7.70;99.90;;;;;;4898101;29;20216;-77
2023/12/30 04:05:19;;;;;;;10.73;10.10;;;7.80;99.90;;;;;;4898348;29;20213;-77
2023/12/30 04:07:47;;;;;;;10.77;10.07;;;7.80;99.90;;;;;;4897641;29;20315;-77
2023/12/30 04:10:15;;;;;;;10.27;9.67;;;7.80;99.90;;;;;;4900262;29;20200;-77
2023/12/30 04:12:42;;;;;;;10.53;9.83;;;7.80;99.90;;;;;;4900433;29;20220;-77
2023/12/30 04:15:10;;;;;;;10.13;9.63;;;7.90;99.90;;;;;;4901084;29;20204;-77
2023/12/30 04:17:37;;;;;;;10.50;9.90;;;7.90;99.90;;;;;;4900603;29;20367;-77
2023/12/30 04:20:05;;;;;;;10.47;9.87;;;7.90;99.90;;;;;;4900106;29;20205;-77
2023/12/30 04:22:32;;;;;;;10.27;9.67;;;7.90;99.90;;;;;;4899600;29;20209;-77
2023/12/30 04:25:00;;;;;;;10.10;9.50;;;7.90;99.90;;;;;;4901312;29;20195;-77
2023/12/30 04:27:28;;;;;;;10.40;9.80;;;7.80;99.90;;;;;;4899946;29;20231;-77
2023/12/30 04:29:54;;;;;;;10.57;9.97;;;7.80;99.90;;;;;;4906941;29;20208;-78
2023/12/30 04:32:22;;;;;;;11.00;10.10;;;7.80;99.90;;;;;;4899921;29;20720;-76
2023/12/30 04:34:49;;;;;;;10.40;9.80;;;7.80;99.90;;;;;;4899737;29;20295;-77
2023/12/30 04:37:16;;;;;;;10.23;9.63;;;7.80;99.90;;;;;;4898518;29;20249;-75
2023/12/30 04:39:43;;;;;;;10.47;9.80;;;7.80;99.90;;;;;;4908091;29;20220;-77
2023/12/30 04:42:12;;;;;;;10.27;9.67;;;7.90;99.90;;;;;;4913566;29;20201;-78
2023/12/30 04:44:39;;;;;;;10.60;9.80;;;8.00;99.90;;;;;;4905674;29;20197;-77
2023/12/30 04:47:07;;;;;;;10.30;9.70;;;8.00;99.90;;;;;;4893702;29;20221;-76
2023/12/30 04:49:34;;;;;;;10.67;10.07;;;8.00;99.90;;;;;;4890596;29;20694;-77
2023/12/30 04:52:01;;;;;;;10.70;10.10;;;8.10;99.90;;;;;;4907071;29;20732;-77
2023/12/30 04:54:30;;;;;;;11.10;10.30;;;8.10;99.90;;;;;;4908400;29;20203;-77
2023/12/30 04:56:57;;;;;;;10.97;10.27;;;8.10;99.90;;;;;;4899684;29;20224;-77
2023/12/30 04:59:26;;;;;;;10.90;10.17;;;8.20;99.90;;;;;;4892190;29;20675;-76
2023/12/30 05:01:53;;;;;;;11.10;10.40;;;8.20;99.90;;;;;;4899513;29;20252;-77
2023/12/30 05:04:20;;;;;;;11.00;10.20;;;8.20;99.90;;;;;;4899577;29;20244;-77
2023/12/30 05:06:48;;;;;;;11.07;10.37;;;8.20;99.90;;;;;;4893530;29;20227;-76
2023/12/30 05:09:15;;;;;;;10.80;10.20;;;8.30;99.90;;;;;;4893961;29;20289;-75
2023/12/30 05:11:45;;;;;;;10.80;10.20;;;8.30;99.90;;;;;;4898447;29;20303;-76
2023/12/30 05:14:12;;;;;;;10.90;10.30;;;8.30;99.90;;;;;;4894179;29;20215;-76
2023/12/30 05:16:45;;;;;;;11.50;10.80;;;8.30;99.90;;;;;;4898849;29;20307;-77
2023/12/30 05:19:12;;;;;;;11.40;10.70;;;8.30;99.90;;;;;;4898109;29;20288;-76
2023/12/30 05:21:38;;;;;;;11.20;10.60;;;8.30;99.90;;;;;;4901479;29;20232;-80
2023/12/30 05:24:06;;;;;;;11.30;10.67;;;8.30;99.90;;;;;;4894072;29;20275;-78
2023/12/30 05:26:33;;;;;;;11.13;10.53;;;8.30;99.90;;;;;;4899873;29;20224;-78
2023/12/30 05:29:00;;;;;;;11.30;10.70;;;8.30;99.90;;;;;;4900239;29;20220;-78
2023/12/30 05:31:26;;;;;;;11.20;10.50;;;8.30;99.90;;;;;;4899218;29;20615;-78
2023/12/30 05:33:54;;;;;;;10.93;10.23;;;8.30;99.90;;;;;;4900214;29;20205;-77
2023/12/30 05:36:21;;;;;;;11.03;10.43;;;8.30;99.90;;;;;;4900328;29;20228;-78
2023/12/30 05:38:48;;;;;;;11.20;10.60;;;8.30;99.90;;;;;;4900883;29;20449;-84
2023/12/30 05:41:15;;;;;;;11.43;10.63;;;8.30;99.90;;;;;;4902972;29;20196;-76
2023/12/30 05:43:42;;;;;;;11.07;10.47;;;8.30;99.90;;;;;;4901613;29;20683;-77
2023/12/30 05:46:08;;;;;;;10.77;10.17;;;8.30;99.90;;;;;;4899898;29;20196;-78
2023/12/30 05:48:35;;;;;;;10.60;10.00;;;8.30;99.90;;;;;;4896681;29;20224;-77
2023/12/30 05:51:03;;;;;;;10.67;10.07;;;8.30;99.90;;;;;;4897085;29;20276;-78
2023/12/30 05:53:30;;;;;;;10.90;10.20;;;8.30;99.90;;;;;;4898649;29;20205;-78
2023/12/30 05:55:57;;;;;;;10.70;10.10;;;8.30;99.90;;;;;;4900165;29;20220;-76
2023/12/30 05:58:24;;;;;;;10.60;10.00;;;8.30;99.90;;;;;;4900796;29;20245;-77
2023/12/30 06:00:51;;;;;;;10.70;10.10;;;8.30;99.90;;;;;;4900368;29;20253;-77
2023/12/30 06:03:18;;;;;;;11.30;10.63;;;8.20;99.90;;;;;;4900920;29;20228;-77
2023/12/30 06:05:44;;;;;;;12.00;11.20;;;8.20;99.90;;;;;;4901562;29;20679;-77
2023/12/30 06:08:13;;;;;;;11.40;10.80;;;8.20;99.90;;;;;;4900648;29;20251;-77
2023/12/30 06:10:39;;;;;;;11.20;10.50;;;8.20;99.90;;;;;;4901587;29;20234;-77
2023/12/30 06:13:06;;;;;;;10.80;10.10;;;8.20;99.90;;;;;;4902020;29;20683;-77
2023/12/30 06:15:33;;;;;;;11.30;10.70;;;8.20;99.90;;;;;;4901594;29;20207;-77
2023/12/30 06:18:00;;;;;;;12.17;10.97;;;8.10;99.90;;;;;;4903168;29;20216;-77
2023/12/30 06:20:27;;;;;;;10.77;10.07;;;8.10;99.90;;;;;;4901581;29;20201;-77
2023/12/30 06:22:54;;;;;;;11.03;10.43;;;8.10;99.90;;;;;;4890988;29;20201;-76
2023/12/30 06:25:23;;;;;;;11.30;10.60;;;8.10;99.90;;;;;;4897316;29;20680;-76
2023/12/30 06:27:50;;;;;;;11.37;10.70;;;8.10;99.90;;;;;;4897128;29;20225;-76
2023/12/30 06:30:17;;;;;;;11.07;10.47;;;8.10;99.90;;;;;;4896640;29;20232;-77
2023/12/30 06:32:44;;;;;;;11.00;10.30;;;8.10;99.90;;;;;;4898816;29;20225;-77
2023/12/30 06:35:10;;;;;;;11.33;10.63;;;8.10;99.90;;;;;;4899818;29;20204;-77
2023/12/30 06:37:37;;;;;;;11.30;10.57;;;8.00;99.90;;;;;;4899491;29;20236;-76
2023/12/30 06:40:05;;;;;;;11.57;10.73;;;8.00;99.90;;;;;;4897937;29;20199;-76
2023/12/30 06:42:33;;;;;;;11.27;10.60;;;8.00;99.90;;;;;;4897696;29;20708;-77
2023/12/30 06:45:00;;;;;;;10.87;10.17;;;8.00;99.90;;;;;;4894243;29;20271;-78
2023/12/30 06:47:27;;;;;;;11.30;10.50;;;8.00;99.90;;;;;;4899836;29;20228;-77
2023/12/30 06:49:53;;;;;;;11.60;10.90;;;8.00;99.90;;;;;;4898778;29;20204;-81
2023/12/30 06:52:20;;;;;;;11.40;10.70;;;7.90;99.90;;;;;;4894435;29;20244;-77
2023/12/30 06:54:47;;;;;;;11.77;10.97;;;7.90;99.90;;;;;;4898066;29;20264;-77
2023/12/30 06:57:14;;;;;;;11.43;10.73;;;7.90;99.90;;;;;;4892936;29;20285;-83
2023/12/30 06:59:42;;;;;;;11.50;10.80;;;7.90;99.90;;;;;;4898844;29;20205;-78
2023/12/30 07:02:09;;;;;;;12.13;11.40;;;7.90;99.90;;;;;;4898339;29;20240;-78
2023/12/30 07:04:35;;;;;;;11.80;11.10;;;7.90;99.90;;;;;;4898432;29;20201;-78
2023/12/30 07:07:02;;;;;;;11.60;10.90;;;8.00;99.90;;;;;;4899460;29;20221;-78
2023/12/30 07:09:29;;;;;;;11.27;10.67;;;8.00;99.90;;;;;;4899745;29;20224;-77
2023/12/30 07:11:56;;;;;;;11.57;10.97;;;8.00;99.90;;;;;;4896784;29;20323;-77
2023/12/30 07:14:23;;;;;;;11.70;11.00;;;7.90;99.90;;;;;;4894783;29;20228;-77
2023/12/30 07:16:51;;;;;;;11.50;10.80;;;7.90;99.90;;;;;;4899643;29;20220;-77
2023/12/30 07:19:18;;;;;;;11.43;10.63;;;7.90;99.90;;;;;;4899230;29;20926;-77
2023/12/30 07:21:45;;;;;;;11.57;10.87;;;7.90;99.90;;;;;;4898068;29;20203;-77
2023/12/30 07:24:11;;;;;;;11.50;10.80;;;7.90;99.90;;;;;;4897872;29;20208;-77
2023/12/30 07:26:38;;;;;;;11.20;10.60;;;8.00;99.90;;;;;;4898068;29;20240;-77
2023/12/30 07:29:05;;;;;;;11.47;10.77;;;8.00;99.90;;;;;;4897783;29;20192;-77
2023/12/30 07:31:32;;;;;;;11.60;10.90;;;8.00;99.90;;;;;;4897437;29;20220;-77
2023/12/30 07:34:00;;;;;;;11.17;10.50;;;8.00;99.90;;;;;;4897925;29;20255;-77
2023/12/30 07:36:27;;;;;;;10.77;10.17;;;8.00;99.90;;;;;;4897653;29;20205;-78
2023/12/30 07:38:54;;;;;;;10.17;9.57;;;8.00;99.90;;;;;;4899616;29;20215;-77
2023/12/30 07:41:20;;;;;;;10.70;10.00;;;8.00;99.90;;;;;;4899170;29;20268;-77
2023/12/30 07:43:49;;;;;;;10.87;10.07;;;8.00;99.90;;;;;;4901432;29;20204;-76
2023/12/30 07:46:16;;;;;;;10.97;10.30;;;8.00;99.90;;;;;;4901836;29;20205;-77
2023/12/30 07:48:44;;;;;;;10.77;10.07;;;8.10;99.90;;;;;;4901196;29;20260;-77
2023/12/30 07:51:12;;;;;;;10.80;10.10;;;8.10;99.90;;;;;;4901525;29;20201;-77
2023/12/30 07:53:39;;;;;;;10.93;10.23;;;8.10;99.90;;;;;;4902860;29;20685;-78
2023/12/30 07:56:06;;;;;;;11.00;10.30;;;8.10;99.90;;;;;;4903335;29;20231;-79
2023/12/30 07:58:33;;;;;;;10.90;10.30;;;8.20;99.90;;;;;;4903166;29;20287;-77
2023/12/30 08:00:59;;;;;;;10.43;9.83;;;8.20;99.90;;;;;;4901414;29;20200;-77
2023/12/30 08:03:26;;;;;;;10.97;10.23;;;8.30;99.90;;;;;;4902868;29;20664;-77
2023/12/30 08:05:53;;;;;;;10.40;9.80;;;8.20;99.90;;;;;;4902056;29;20661;-78
2023/12/30 08:08:21;;;;;;;11.17;10.07;;;8.30;99.90;;;;;;4900382;29;20228;-77
2023/12/30 08:10:48;;;;;;;10.50;9.90;;;8.40;99.90;;;;;;4903935;29;20271;-77
2023/12/30 08:13:16;;;;;;;11.00;10.40;;;8.40;99.90;;;;;;4902814;29;20480;-77
2023/12/30 08:15:42;;;;;;;6.80;6.30;;;8.50;99.90;;;;;;4905658;29;20312;-77
2023/12/30 08:18:09;;;;;;;8.60;8.10;;;8.50;99.90;;;;;;4897469;29;20780;-77
2023/12/30 08:20:36;;;;;;;8.63;8.03;;;8.50;99.90;;;;;;4899205;29;20676;-77
2023/12/30 08:23:03;;;;;;;7.17;6.70;;;8.60;99.90;;;;;;4896640;29;20205;-77
2023/12/30 08:25:31;;;;;;;7.77;7.27;;;8.70;99.90;;;;;;4899868;29;20240;-77
2023/12/30 08:27:58;;;;;;;5.43;4.70;;;8.70;99.90;;;;;;4893262;29;20224;-76
2023/12/30 08:30:25;;;;;;;10.47;9.67;;;8.70;99.90;;;;;;4895235;29;20575;-78
2023/12/30 08:32:52;;;;;;;7.27;6.87;;;8.80;99.90;;;;;;4911819;29;20735;-76
2023/12/30 08:35:19;;;;;;;6.97;6.53;;;8.70;99.90;;;;;;4912479;29;20213;-77
2023/12/30 08:37:46;;;;;;;7.37;6.87;;;8.70;99.90;;;;;;4909646;29;20267;-77
2023/12/30 08:40:14;;;;;;;3.83;3.53;;;8.70;99.90;;;;;;4900827;29;20209;-76
2023/12/30 08:42:44;;;;;;;3.90;3.70;;;8.80;99.90;;;;;;4897682;29;20640;-78
2023/12/30 08:45:18;;;;;;;4.67;3.90;;;8.80;99.90;;;;;;4899619;29;20319;-77
2023/12/30 08:47:45;;;;;;;3.73;2.80;;;8.80;99.90;;;;;;4899278;29;20225;-77
2023/12/30 08:50:12;;;;;;;4.07;3.77;;;8.80;99.90;;;;;;4900966;29;20664;-77
2023/12/30 08:52:39;;;;;;;4.17;3.87;;;8.80;99.90;;;;;;4899494;29;20593;-77
2023/12/30 08:55:10;;;;;;;6.17;5.77;;;8.90;99.90;;;;;;4899762;29;20724;-78
2023/12/30 08:57:37;;;;;;;3.27;2.97;;;9.00;99.90;;;;;;4899234;29;20754;-75
2023/12/30 09:00:08;;;;;;;3.53;3.33;;;9.30;99.90;;;;;;4895958;29;20276;-77
2023/12/30 09:02:35;;;;;;;10.00;9.40;;;9.50;99.90;;;;;;4900817;29;20192;-77
2023/12/30 09:05:02;;;;;;;4.83;4.50;;;9.70;99.90;;;;;;4895977;29;20676;-77
2023/12/30 09:07:29;;;;;;;5.10;3.80;;;10.00;99.90;;;;;;4899634;29;20244;-77
2023/12/30 09:09:57;;;;;;;9.40;8.87;;;10.10;99.90;;;;;;4901919;29;20205;-77
2023/12/30 09:12:24;;;;;;;10.50;9.77;;;10.30;99.90;;;;;;4900974;29;20232;-77
2023/12/30 09:14:51;;;;;;;10.73;10.03;;;10.40;99.90;;;;;;4901288;29;20258;-77
2023/12/30 09:17:19;;;;;;;10.70;10.10;;;10.50;99.90;;;;;;4901103;29;20290;-77
2023/12/30 09:19:46;;;;;;;10.63;10.03;;;10.60;99.90;;;;;;4901213;29;20230;-77
2023/12/30 09:22:13;;;;;;;10.80;10.20;;;10.80;99.90;;;;;;4901918;29;20250;-77
2023/12/30 09:24:41;;;;;;;11.40;10.80;;;10.80;99.90;;;;;;4900829;29;20496;-76
2023/12/30 09:27:08;;;;;;;10.80;10.20;;;10.80;99.90;;;;;;4899840;29;20231;-81
2023/12/30 09:29:35;;;;;;;9.03;8.37;;;10.80;99.90;;;;;;4899743;29;20211;-77
2023/12/30 09:32:02;;;;;;;5.30;4.90;;;10.70;99.90;;;;;;4900245;29;20265;-77
2023/12/30 09:34:31;;;;;;;5.00;4.70;;;10.70;99.90;;;;;;4901624;29;20258;-77
2023/12/30 09:36:58;;;;;;;5.50;5.20;;;10.70;99.90;;;;;;4901687;29;20230;-77
2023/12/30 09:39:24;;;;;;;5.57;5.17;;;10.60;99.90;;;;;;4900422;29;20211;-78
2023/12/30 09:41:51;;;;;;;5.20;4.90;;;10.60;99.90;;;;;;4901147;29;20210;-77
2023/12/30 09:44:19;;;;;;;5.20;4.90;;;10.70;99.90;;;;;;4911714;29;20215;-80
2023/12/30 09:46:50;;;;;;;6.80;5.20;;;10.70;99.90;;;;;;4898576;29;20222;-77
2023/12/30 09:49:17;;;;;;;10.43;5.97;;;10.70;99.90;;;;;;4899335;29;20262;-77
2023/12/30 09:51:46;;;;;;;8.40;7.90;;;10.80;99.90;;;;;;4903429;29;20214;-77
2023/12/30 09:54:12;;;;;;;8.10;7.60;;;10.80;99.90;;;;;;4902483;29;20630;-77
2023/12/30 09:56:41;;;;;;;7.70;7.30;;;10.80;99.90;;;;;;4899515;29;20238;-78
2023/12/30 09:59:07;;;;;;;5.87;5.40;;;10.80;99.90;;;;;;4899245;29;20254;-77
2023/12/30 10:01:35;;;;;;;9.00;8.30;;;10.80;99.90;;;;;;4900044;29;20206;-77
2023/12/30 10:04:03;;;;;;;6.83;6.23;;;10.80;99.90;;;;;;4899711;29;20197;-77
2023/12/30 10:06:31;;;;;;;5.07;4.77;;;10.80;99.90;;;;;;4894854;29;20628;-77
2023/12/30 10:08:59;;;;;;;5.43;5.03;;;10.80;99.90;;;;;;4896844;29;20225;-77
2023/12/30 10:11:26;;;;;;;5.10;4.80;;;10.80;99.90;;;;;;4899943;29;20204;-77
2023/12/30 10:13:54;;;;;;;5.07;4.60;;;10.80;99.90;;;;;;4898051;29;20262;-77
2023/12/30 10:16:20;;;;;;;5.53;4.90;;;10.80;99.90;;;;;;4903957;29;20283;-77
2023/12/30 10:18:47;;;;;;;4.83;4.53;;;10.80;99.90;;;;;;4898338;29;20662;-77
2023/12/30 10:21:18;;;;;;;4.73;4.43;;;10.80;99.90;;;;;;4899068;29;20213;-77
2023/12/30 10:23:48;;;;;;;4.60;4.30;;;10.80;99.90;;;;;;4898417;29;20647;-77
2023/12/30 10:26:16;;;;;;;5.20;4.80;;;10.80;99.90;;;;;;4897675;29;20207;-77
2023/12/30 10:28:43;;;;;;;4.73;4.40;;;10.80;99.90;;;;;;4897310;29;20761;-77
2023/12/30 10:31:11;;;;;;;4.80;4.50;;;10.70;99.90;;;;;;4894598;29;20253;-77
2023/12/30 10:33:38;;;;;;;7.73;7.23;;;10.70;99.90;;;;;;4897256;29;20283;-76
2023/12/30 10:36:07;;;;;;;8.37;7.87;;;10.70;99.90;;;;;;4897809;29;20744;-77
2023/12/30 10:38:36;;;;;;;5.30;4.90;;;10.70;99.90;;;;;;4897712;29;20733;-78
2023/12/30 10:41:03;;;;;;;4.73;4.33;;;10.70;99.90;;;;;;4898539;29;20203;-77
2023/12/30 10:43:31;;;;;;;5.03;4.73;;;10.70;99.90;;;;;;4899267;29;20685;-77
2023/12/30 10:45:59;;;;;;;9.67;9.07;;;10.70;99.90;;;;;;4904340;29;20734;-77
2023/12/30 10:48:31;;;;;;;8.20;7.70;;;10.60;99.90;;;;;;4905483;29;20222;-77
2023/12/30 10:50:59;;;;;;;9.77;9.23;;;10.50;99.90;;;;;;4900782;29;20214;-79
2023/12/30 10:53:29;;;;;;;9.70;9.20;;;10.50;99.90;;;;;;4893780;29;20225;-80
2023/12/30 10:56:00;;;;;;;9.90;9.40;;;10.40;99.90;;;;;;4898749;29;20201;-77
2023/12/30 10:58:26;;;;;;;10.30;9.70;;;10.30;99.90;;;;;;4898032;29;20604;-77
2023/12/30 11:00:58;;;;;;;10.20;9.60;;;10.30;99.90;;;;;;4897321;29;20201;-76
2023/12/30 11:03:26;;;;;;;10.13;9.53;;;10.40;99.90;;;;;;4897244;29;20258;-77
2023/12/30 11:06:01;;;;;;;10.50;9.80;;;10.40;99.90;;;;;;4897107;29;20238;-77
2023/12/30 11:08:28;;;;;;;10.00;9.40;;;10.40;99.90;;;;;;4896082;29;20237;-76
2023/12/30 11:10:57;;;;;;;10.30;9.50;;;10.50;99.90;;;;;;4895924;29;20265;-76
2023/12/30 11:13:24;;;;;;;10.30;9.70;;;10.50;99.90;;;;;;4896148;29;20291;-76
2023/12/30 11:15:51;;;;;;;9.30;8.80;;;10.60;99.90;;;;;;4897154;29;20233;-76
2023/12/30 11:18:46;;;;;;;10.03;9.43;;;10.60;99.90;;;;;;4896644;29;20257;-76
2023/12/30 11:21:13;;;;;;;9.77;9.17;;;10.60;99.90;;;;;;4897341;29;20226;-79
2023/12/30 11:23:40;;;;;;;9.87;9.30;;;10.60;99.90;;;;;;4897868;29;20198;-76
2023/12/30 11:26:07;;;;;;;10.00;9.40;;;10.60;99.90;;;;;;4898570;29;20215;-78
2023/12/30 11:28:37;;;;;;;9.80;9.30;;;10.70;99.90;;;;;;4898504;29;20227;-77
2023/12/30 11:31:04;;;;;;;9.90;9.30;;;10.70;99.90;;;;;;4896292;29;20671;-77
2023/12/30 11:33:32;;;;;;;9.53;9.03;;;10.70;99.90;;;;;;4897588;29;20264;-77
2023/12/30 11:36:03;;;;;;;9.50;8.90;;;10.80;99.90;;;;;;4896846;29;20211;-77
2023/12/30 11:38:31;;;;;;;9.50;9.00;;;10.80;99.90;;;;;;4891114;29;20304;-77
2023/12/30 11:40:59;;;;;;;9.80;9.10;;;10.80;99.90;;;;;;4898175;29;20210;-78
2023/12/30 11:43:26;;;;;;;9.53;8.93;;;10.90;99.90;;;;;;4897144;29;20263;-77
2023/12/30 11:45:53;;;;;;;9.33;8.83;;;10.90;99.90;;;;;;4901911;29;20578;-76
2023/12/30 11:48:20;;;;;;;9.60;9.10;;;10.90;99.90;;;;;;4898481;29;20294;-78
2023/12/30 11:50:54;;;;;;;9.83;9.13;;;10.90;99.90;;;;;;4896205;29;20301;-78
2023/12/30 11:53:21;;;;;;;7.10;6.70;;;10.90;99.90;;;;;;4897350;29;20215;-78
2023/12/30 11:55:48;;;;;;;9.40;8.80;;;11.00;99.90;;;;;;4897377;29;20210;-78
2023/12/30 11:58:15;;;;;;;9.83;9.27;;;10.90;99.90;;;;;;4897642;29;20238;-77
2023/12/30 12:00:42;;;;;;;5.70;5.40;;;10.90;99.90;;;;;;4899211;29;20207;-77
2023/12/30 12:03:09;;;;;;;4.50;4.30;;;11.00;99.90;;;;;;4899230;29;20632;-77
2023/12/30 12:05:35;;;;;;;6.10;5.80;;;11.00;99.90;;;;;;4900035;29;20211;-77
2023/12/30 12:08:04;;;;;;;5.80;5.50;;;11.10;99.90;;;;;;4896371;29;20222;-79
2023/12/30 12:10:33;;;;;;;5.30;4.97;;;11.20;99.90;;;;;;4891054;29;20246;-79
2023/12/30 12:13:02;;;;;;;4.53;4.23;;;11.30;99.90;;;;;;4905326;29;20219;-79
2023/12/30 12:15:29;;;;;;;4.40;4.10;;;11.30;99.90;;;;;;4900627;29;20585;-79
2023/12/30 12:17:57;;;;;;;4.40;4.10;;;11.30;99.90;;;;;;4897945;29;20231;-77
2023/12/30 12:20:24;;;;;;;5.13;4.90;;;11.40;99.90;;;;;;4897303;29;20208;-77
2023/12/30 12:22:54;;;;;;;4.90;4.60;;;11.40;99.90;;;;;;4894964;29;20243;-76
2023/12/30 12:25:23;;;;;;;8.03;7.60;;;11.40;99.90;;;;;;4910693;29;20203;-81
2023/12/30 12:27:49;;;;;;;4.60;4.30;;;11.40;99.90;;;;;;4885823;29;20361;-81
2023/12/30 12:30:17;;;;;;;7.97;7.57;;;11.40;99.90;;;;;;4895891;29;20207;-79
2023/12/30 12:32:43;;;;;;;9.07;8.57;;;11.30;99.90;;;;;;4900169;29;20207;-80
2023/12/30 12:35:11;;;;;;;9.50;9.00;;;11.40;99.90;;;;;;4896433;29;20212;-80
2023/12/30 12:37:38;;;;;;;8.53;8.03;;;11.40;99.90;;;;;;4902072;29;20231;-80
2023/12/30 12:40:10;;;;;;;8.77;8.27;;;11.40;99.90;;;;;;4905491;29;20556;-81
2023/12/30 12:42:38;;;;;;;9.03;8.53;;;11.40;99.90;;;;;;4904978;29;20292;-80